createdAt,value
2022-10-23T00:01:44.379Z,8.00
2022-10-23T00:12:28.065Z,9.82
2022-10-23T00:14:54.491Z,10.95
2022-10-23T00:17:21.048Z,11.00
2022-10-23T00:19:47.531Z,10.30
2022-10-23T00:22:14.031Z,8.95
2022-10-23T07:58:32.936Z,13.20
2022-10-23T08:01:15.248Z,12.35
2022-10-23T08:03:41.933Z,11.73
2022-10-23T08:06:08.474Z,11.93
2022-10-23T08:08:35.175Z,12.40
2022-10-23T08:11:03.920Z,12.18
2022-10-23T08:13:39.767Z,11.80
2022-10-23T08:16:06.726Z,12.18
2022-10-23T08:19:06.132Z,11.20
2022-10-23T08:21:34.512Z,11.38
2022-10-23T08:24:01.967Z,10.70
2022-10-23T08:26:29.605Z,10.77
2022-10-23T08:28:58.317Z,11.68
2022-10-23T08:31:26.169Z,11.23
2022-10-23T08:34:13.000Z,11.05
2022-10-23T08:36:40.655Z,11.25
2022-10-23T08:39:07.796Z,10.15
2022-10-23T08:41:43.263Z,10.68
2022-10-23T08:44:14.208Z,11.60
2022-10-23T08:46:46.970Z,11.77
2022-10-23T08:49:41.208Z,12.43
2022-10-23T08:52:14.124Z,12.15
2022-10-23T08:54:54.760Z,13.10
2022-10-23T08:57:23.436Z,13.43
2022-10-23T08:59:52.851Z,13.30
2022-10-23T09:02:25.473Z,12.20
2022-10-23T09:04:53.506Z,11.73
2022-10-23T09:07:34.060Z,12.60
2022-10-23T09:10:10.540Z,12.45
2022-10-23T09:12:37.069Z,12.85
2022-10-23T09:15:22.557Z,13.00
2022-10-23T09:17:54.008Z,12.13
2022-10-23T09:20:22.392Z,13.07
2022-10-23T09:25:20.720Z,13.73
2022-10-23T09:27:55.714Z,13.60
2022-10-23T09:30:41.698Z,14.70
2022-10-23T09:33:14.314Z,13.20
2022-10-23T09:35:51.214Z,14.32
2022-10-23T09:38:26.062Z,13.90
2022-10-23T09:40:52.774Z,13.95
2022-10-23T09:43:23.251Z,13.45
2022-10-23T09:45:56.892Z,14.85
2022-10-23T09:48:23.396Z,15.02
2022-10-23T09:50:54.154Z,14.77
2022-10-23T09:53:23.405Z,14.75
2022-10-23T09:55:54.411Z,14.90
2022-10-23T09:58:24.963Z,16.27
2022-10-23T10:00:53.450Z,16.00
2022-10-23T10:03:37.317Z,15.20
2022-10-23T10:06:22.460Z,15.85
2022-10-23T10:08:50.818Z,16.30
2022-10-23T10:14:01.824Z,14.75
2022-10-23T10:16:37.750Z,16.10
2022-10-23T10:19:16.396Z,16.80
2022-10-23T10:21:42.841Z,14.35
2022-10-23T10:24:20.406Z,16.23
2022-10-23T10:27:13.067Z,15.10
2022-10-23T10:29:54.035Z,15.02
2022-10-23T10:32:20.438Z,15.52
2022-10-23T10:35:15.228Z,15.73
2022-10-23T10:38:00.559Z,14.02
2022-10-23T10:40:35.379Z,14.38
2022-10-23T10:43:20.719Z,15.90
2022-10-23T10:45:48.620Z,14.98
2022-10-23T10:48:15.134Z,15.45
2022-10-23T10:51:23.071Z,14.13
2022-10-23T10:53:58.829Z,13.95
2022-10-23T10:56:27.305Z,13.85
2022-10-23T10:58:56.578Z,15.27
2022-10-23T11:01:28.698Z,14.48
2022-10-23T11:03:58.600Z,14.07
2022-10-23T11:09:51.728Z,14.27
2022-10-23T11:12:19.752Z,13.65
2022-10-23T11:14:46.323Z,13.25
2022-10-23T11:20:44.764Z,12.43
2022-10-23T11:39:35.933Z,12.30
2022-10-23T11:42:30.219Z,11.88
2022-10-23T11:44:56.824Z,12.60
2022-10-23T11:47:43.198Z,12.32
2022-10-23T11:50:09.718Z,13.30
2022-10-23T11:56:37.924Z,11.70
2022-10-23T11:59:23.662Z,11.57
2022-10-23T12:02:17.540Z,11.20
2022-10-23T12:05:20.414Z,11.52
2022-10-23T12:16:42.213Z,9.57
2022-10-23T12:19:22.269Z,9.85
2022-10-23T12:22:13.201Z,9.45
2022-10-23T12:25:10.522Z,10.30
2022-10-23T12:27:57.334Z,9.48
2022-10-23T12:34:21.281Z,9.15
2022-10-23T12:41:11.454Z,9.82
2022-10-23T13:14:40.673Z,7.40
2022-10-23T13:17:41.384Z,7.82
2022-10-23T13:20:47.413Z,6.53
2022-10-23T13:38:15.998Z,6.80
2022-10-23T13:40:42.499Z,6.75
2022-10-23T13:43:16.805Z,6.85
2022-10-23T13:45:43.300Z,6.90
2022-10-23T13:48:13.643Z,7.10
2022-10-23T13:50:40.150Z,6.82
2022-10-23T14:03:56.691Z,6.35
2022-10-23T14:06:29.781Z,7.13
2022-10-23T14:09:06.881Z,7.95
2022-10-23T14:12:40.791Z,7.10
2022-10-23T14:27:08.483Z,6.40
2022-10-23T14:33:28.762Z,6.35
2022-10-23T14:35:55.220Z,6.88
2022-10-23T14:38:25.471Z,7.47
2022-10-23T15:20:06.068Z,5.82
2022-10-23T15:41:57.457Z,6.43
2022-10-23T15:44:24.654Z,7.00
2022-10-23T15:46:54.939Z,6.07
2022-10-23T15:49:21.469Z,7.60
2022-10-23T15:51:48.157Z,7.47
2022-10-23T15:54:19.198Z,7.07
2022-10-23T15:56:46.912Z,6.85
2022-10-23T15:59:13.788Z,7.57
2022-10-23T16:01:40.395Z,7.20
2022-10-23T16:04:06.929Z,6.50
2022-10-23T16:06:33.448Z,7.20
2022-10-23T16:09:00.010Z,8.45
2022-10-23T16:11:28.019Z,7.00
2022-10-23T16:13:55.668Z,7.57
2022-10-23T16:16:22.142Z,8.05
2022-10-23T16:18:48.597Z,9.23
2022-10-23T16:21:22.584Z,7.43
2022-10-23T16:23:49.651Z,8.10
2022-10-23T16:26:16.503Z,8.25
2022-10-23T16:28:47.275Z,9.20
2022-10-23T16:31:20.217Z,11.48
2022-10-23T16:33:50.591Z,9.00
2022-10-23T16:36:18.595Z,7.82
2022-10-23T16:39:13.709Z,7.95
2022-10-23T16:41:58.449Z,8.18
2022-10-23T16:44:33.528Z,7.75
2022-10-23T16:47:03.665Z,7.97
2022-10-23T16:49:32.110Z,8.05
2022-10-23T16:51:58.747Z,7.72
2022-10-23T16:54:25.323Z,8.60
2022-10-23T16:56:51.776Z,8.00
2022-10-23T16:59:18.327Z,7.95
2022-10-23T17:01:44.874Z,9.77
2022-10-23T17:04:11.497Z,9.05
2022-10-23T17:06:38.062Z,8.65
2022-10-23T17:09:05.026Z,6.97
2022-10-23T17:11:32.400Z,7.70
2022-10-23T17:14:00.169Z,8.10
2022-10-23T17:16:28.395Z,7.32
2022-10-23T17:18:55.442Z,8.32
2022-10-23T17:21:22.418Z,8.10
2022-10-23T17:23:49.616Z,7.25
2022-10-23T17:26:18.568Z,6.75
2022-10-23T17:28:45.516Z,7.30
2022-10-23T17:31:16.580Z,7.65
2022-10-23T17:33:43.870Z,7.80
2022-10-23T17:36:10.827Z,8.50
2022-10-23T17:38:38.320Z,6.22
2022-10-23T17:41:05.435Z,5.70
2022-10-23T17:43:32.107Z,5.63
2022-10-23T17:45:58.961Z,6.55
2022-10-23T17:48:25.892Z,6.22
2022-10-23T17:51:05.839Z,5.85
2022-10-23T17:53:33.185Z,6.95
2022-10-23T17:56:01.538Z,5.30
2022-10-23T17:58:27.998Z,4.97
2022-10-23T18:00:54.520Z,5.15
2022-10-23T18:03:21.065Z,5.05
2022-10-23T18:05:47.675Z,5.35
2022-10-23T18:08:14.329Z,5.60
2022-10-23T18:10:40.825Z,5.25
2022-10-23T18:13:07.421Z,5.70
2022-10-23T18:15:34.712Z,6.00
2022-10-23T18:18:01.430Z,6.15
2022-10-23T18:20:28.133Z,5.80
2022-10-23T18:22:54.668Z,5.63
2022-10-23T18:25:21.098Z,6.15
2022-10-23T18:27:47.614Z,5.55
2022-10-23T18:30:14.258Z,5.15
2022-10-23T18:32:40.940Z,5.65
2022-10-23T18:35:07.873Z,5.32
2022-10-23T18:37:37.763Z,4.88
2022-10-23T18:40:08.066Z,5.43
2022-10-23T18:42:34.673Z,5.03
2022-10-23T18:45:01.304Z,5.28
2022-10-23T18:47:27.774Z,5.15
2022-10-23T18:49:54.511Z,5.00
2022-10-23T18:52:20.939Z,6.20
2022-10-23T18:54:47.415Z,5.22
2022-10-23T18:57:13.853Z,5.60
2022-10-23T18:59:40.399Z,4.90
2022-10-23T19:02:07.074Z,4.60
2022-10-23T19:04:35.685Z,4.38
2022-10-23T19:07:02.999Z,4.75
2022-10-23T19:09:29.427Z,3.80
2022-10-23T19:11:55.924Z,3.38
2022-10-23T19:14:22.473Z,2.90
2022-10-23T19:17:02.769Z,3.10
2022-10-23T19:19:31.589Z,2.72
2022-10-23T19:21:58.286Z,3.13
2022-10-23T19:24:31.472Z,3.13
2022-10-23T19:26:59.367Z,3.15
2022-10-23T19:29:26.649Z,3.30
2022-10-23T19:31:53.563Z,3.28
2022-10-23T19:34:22.766Z,3.30
2022-10-23T19:36:49.911Z,3.00
2022-10-23T19:39:17.067Z,3.10
2022-10-23T19:41:43.944Z,3.20
2022-10-23T19:44:11.009Z,3.50
2022-10-23T19:46:38.265Z,3.15
2022-10-23T19:49:05.442Z,3.00
2022-10-23T19:51:32.424Z,2.97
2022-10-23T19:53:58.920Z,2.88
2022-10-23T19:56:25.787Z,2.80
2022-10-23T19:58:52.694Z,2.90
2022-10-23T20:01:20.980Z,3.33
2022-10-23T20:06:19.396Z,3.60
2022-10-23T20:08:46.017Z,3.65
2022-10-23T20:11:20.763Z,3.95
2022-10-23T20:13:47.921Z,3.55
2022-10-23T20:16:25.607Z,3.95
2022-10-23T20:18:52.531Z,3.17
2022-10-23T20:21:19.606Z,4.00
2022-10-23T20:23:46.422Z,3.80
2022-10-23T20:26:16.074Z,3.95
2022-10-23T20:28:46.808Z,3.28
2022-10-23T20:31:15.358Z,3.58
2022-10-23T20:33:42.356Z,3.47
2022-10-23T20:36:10.090Z,3.65
2022-10-23T20:38:36.622Z,3.22
2022-10-23T20:41:06.986Z,3.67
2022-10-23T20:43:36.516Z,3.40
2022-10-23T20:46:04.006Z,3.58
2022-10-23T20:48:35.310Z,3.78
2022-10-23T20:51:02.884Z,3.80
2022-10-23T20:53:29.488Z,3.58
2022-10-23T20:55:56.316Z,3.80
2022-10-23T20:58:23.332Z,3.60
2022-10-23T21:00:50.190Z,3.45
2022-10-23T21:03:16.768Z,3.00
2022-10-23T21:05:43.531Z,3.22
